createdAt,value
2022-08-09T00:00:04.178Z,17.90
2022-08-09T00:02:42.881Z,17.90
2022-08-09T00:06:19.300Z,18.00
2022-08-09T00:08:10.129Z,17.80
2022-08-09T00:10:38.696Z,17.90
2022-08-09T00:13:16.803Z,17.90
2022-08-09T00:15:58.791Z,17.80
2022-08-09T00:18:31.390Z,17.80
2022-08-09T00:21:07.828Z,17.70
2022-08-09T00:23:54.723Z,17.70
2022-08-09T00:26:32.166Z,17.70
2022-08-09T00:29:02.402Z,17.70
2022-08-09T00:31:57.537Z,17.60
2022-08-09T00:34:19.043Z,17.50
2022-08-09T00:36:48.158Z,17.50
2022-08-09T00:40:05.162Z,17.50
2022-08-09T00:44:11.268Z,17.40
2022-08-09T00:44:53.786Z,17.40
2022-08-09T00:47:21.777Z,17.50
2022-08-09T00:49:55.236Z,17.50
2022-08-09T00:52:28.173Z,17.50
2022-08-09T00:55:00.389Z,17.50
2022-08-09T00:57:34.481Z,17.40
2022-08-09T01:00:21.279Z,17.50
2022-08-09T01:03:05.214Z,17.40
2022-08-09T01:05:51.746Z,17.40
2022-08-09T01:08:29.169Z,17.30
2022-08-09T01:11:15.140Z,17.20
2022-08-09T01:13:59.510Z,17.30
2022-08-09T01:16:47.384Z,17.20
2022-08-09T01:19:39.913Z,17.20
2022-08-09T01:22:48.268Z,17.20
2022-08-09T01:25:22.194Z,17.10
2022-08-09T01:27:52.876Z,17.10
2022-08-09T01:30:28.823Z,17.20
2022-08-09T01:33:07.582Z,17.10
2022-08-09T01:35:51.909Z,17.10
2022-08-09T01:38:24.654Z,17.00
2022-08-09T01:41:04.817Z,17.00
2022-08-09T01:43:50.801Z,17.00
2022-08-09T01:46:24.780Z,17.00
2022-08-09T01:49:00.332Z,16.90
2022-08-09T01:51:42.766Z,16.80
2022-08-09T01:54:12.096Z,16.90
2022-08-09T01:56:43.065Z,16.90
2022-08-09T01:59:18.107Z,16.80
2022-08-09T02:01:59.791Z,16.90
2022-08-09T02:04:32.483Z,16.80
2022-08-09T02:07:18.058Z,16.70
2022-08-09T02:10:11.327Z,16.80
2022-08-09T02:12:39.721Z,16.70
2022-08-09T02:15:11.956Z,16.70
2022-08-09T02:18:00.776Z,16.60
2022-08-09T02:20:43.466Z,16.50
2022-08-09T02:23:20.751Z,16.60
2022-08-09T02:25:56.956Z,16.60
2022-08-09T02:28:35.922Z,16.60
2022-08-09T02:31:11.031Z,16.50
2022-08-09T02:34:07.354Z,16.50
2022-08-09T02:36:37.913Z,16.50
2022-08-09T02:39:14.599Z,16.40
2022-08-09T02:42:01.699Z,16.40
2022-08-09T02:44:37.992Z,16.40
2022-08-09T02:47:09.745Z,16.40
2022-08-09T02:49:41.329Z,16.40
2022-08-09T02:52:15.503Z,16.40
2022-08-09T02:54:54.578Z,16.30
2022-08-09T02:57:25.498Z,16.40
2022-08-09T03:00:20.965Z,16.30
2022-08-09T03:02:58.656Z,16.30
2022-08-09T03:05:29.664Z,16.30
2022-08-09T03:08:03.932Z,16.30
2022-08-09T03:10:33.520Z,16.20
2022-08-09T03:13:01.529Z,16.20
2022-08-09T03:15:40.401Z,16.20
2022-08-09T03:18:19.079Z,16.10
2022-08-09T03:20:58.989Z,16.20
2022-08-09T03:23:25.976Z,16.20
2022-08-09T03:25:58.240Z,16.20
2022-08-09T03:28:31.205Z,16.00
2022-08-09T03:30:59.336Z,16.00
2022-08-09T03:33:53.509Z,16.00
2022-08-09T03:36:19.120Z,15.90
2022-08-09T03:38:47.956Z,15.90
2022-08-09T03:41:18.550Z,15.90
2022-08-09T03:44:03.553Z,15.90
2022-08-09T03:46:34.500Z,16.00
2022-08-09T03:49:03.618Z,16.00
2022-08-09T03:51:55.340Z,15.90
2022-08-09T03:54:29.184Z,15.80
2022-08-09T03:57:01.440Z,15.80
2022-08-09T03:59:43.139Z,15.80
2022-08-09T04:02:27.029Z,15.70
2022-08-09T04:05:05.671Z,15.70
2022-08-09T04:07:47.205Z,15.60
2022-08-09T04:10:28.744Z,15.60
2022-08-09T04:13:00.970Z,15.70
2022-08-09T04:15:42.728Z,15.70
2022-08-09T04:18:16.705Z,15.60
2022-08-09T04:20:49.481Z,15.60
2022-08-09T04:23:16.897Z,15.60
2022-08-09T04:25:51.721Z,15.70
2022-08-09T04:28:34.099Z,15.60
2022-08-09T04:31:08.672Z,15.70
2022-08-09T04:33:52.012Z,15.70
2022-08-09T04:36:23.323Z,15.60
2022-08-09T04:38:51.197Z,15.60
2022-08-09T04:41:19.469Z,15.60
2022-08-09T04:44:05.680Z,15.60
2022-08-09T04:46:59.149Z,15.60
2022-08-09T04:49:40.651Z,15.60
2022-08-09T04:52:18.160Z,15.60
2022-08-09T04:54:51.400Z,15.50
2022-08-09T04:57:21.376Z,15.50
2022-08-09T04:59:51.558Z,15.50
2022-08-09T05:02:19.061Z,15.40
2022-08-09T05:04:47.307Z,15.40
2022-08-09T05:07:19.334Z,15.70
2022-08-09T05:09:49.474Z,15.80
2022-08-09T05:12:17.207Z,15.70
2022-08-09T05:14:44.132Z,15.60
2022-08-09T05:17:15.309Z,15.50
2022-08-09T05:19:58.860Z,15.60
2022-08-09T05:23:51.156Z,15.80
2022-08-09T05:25:15.029Z,15.80
2022-08-09T05:27:46.292Z,15.70
2022-08-09T05:30:15.364Z,15.80
2022-08-09T05:32:45.684Z,15.80
2022-08-09T05:35:18.336Z,15.80
2022-08-09T05:37:50.170Z,15.90
2022-08-09T05:40:18.312Z,15.80
2022-08-09T05:42:46.049Z,15.90
2022-08-09T05:45:14.713Z,16.00
2022-08-09T05:47:52.397Z,16.00
2022-08-09T05:50:39.911Z,16.10
2022-08-09T05:53:21.623Z,16.10
2022-08-09T05:55:59.162Z,16.10
2022-08-09T05:58:26.729Z,16.20
2022-08-09T06:00:53.852Z,16.20
2022-08-09T06:03:20.969Z,16.30
2022-08-09T06:05:50.512Z,16.30
2022-08-09T06:08:25.212Z,16.40
2022-08-09T06:10:57.980Z,16.40
2022-08-09T06:13:28.551Z,16.50
2022-08-09T06:16:00.942Z,16.50
2022-08-09T06:18:32.387Z,16.60
2022-08-09T06:20:59.812Z,16.70
2022-08-09T06:23:55.520Z,16.80
2022-08-09T06:26:20.360Z,16.80
2022-08-09T06:28:47.754Z,16.70
2022-08-09T06:31:15.233Z,16.80
2022-08-09T06:33:52.897Z,16.90
2022-08-09T06:36:20.372Z,17.00
2022-08-09T06:38:54.598Z,17.00
2022-08-09T06:41:24.942Z,17.20
2022-08-09T06:44:14.381Z,17.20
2022-08-09T06:46:49.822Z,17.20
2022-08-09T06:49:44.884Z,17.30
2022-08-09T06:52:11.898Z,17.50
2022-08-09T06:54:39.140Z,17.60
2022-08-09T06:57:08.604Z,17.80
2022-08-09T07:00:55.579Z,17.80
2022-08-09T07:02:29.196Z,17.90
2022-08-09T07:04:58.117Z,18.00
2022-08-09T07:08:00.720Z,18.10
2022-08-09T07:10:29.531Z,18.20
2022-08-09T07:12:58.662Z,18.40
2022-08-09T07:16:35.203Z,18.50
2022-08-09T07:18:14.188Z,18.50
2022-08-09T07:20:43.695Z,18.50
2022-08-09T07:23:18.640Z,18.60
2022-08-09T07:25:52.505Z,18.80
2022-08-09T07:28:29.968Z,18.80
2022-08-09T07:30:57.192Z,19.00
2022-08-09T07:33:24.238Z,19.10
2022-08-09T07:35:54.338Z,19.20
2022-08-09T07:38:23.755Z,19.50
2022-08-09T07:41:11.509Z,19.60
2022-08-09T07:43:50.141Z,19.70
2022-08-09T07:46:27.649Z,19.90
2022-08-09T07:48:59.556Z,19.80
2022-08-09T07:52:04.715Z,20.00
2022-08-09T07:54:27.699Z,20.20
2022-08-09T07:56:57.168Z,20.20
2022-08-09T07:59:34.350Z,20.40
2022-08-09T08:02:13.205Z,20.30
2022-08-09T08:04:48.817Z,20.30
2022-08-09T08:08:43.177Z,20.40
2022-08-09T08:10:08.720Z,20.60
2022-08-09T08:12:43.663Z,20.70
2022-08-09T08:15:14.350Z,20.90
2022-08-09T08:17:55.244Z,21.00
2022-08-09T08:20:29.402Z,21.10
2022-08-09T08:23:01.617Z,21.20
2022-08-09T08:25:43.827Z,21.30
2022-08-09T08:28:14.407Z,21.40
2022-08-09T08:30:43.810Z,21.50
2022-08-09T08:33:22.854Z,21.50
2022-08-09T08:35:58.301Z,21.50
2022-08-09T08:38:28.732Z,21.60
2022-08-09T08:40:58.093Z,21.60
2022-08-09T08:43:27.163Z,21.90
2022-08-09T08:46:03.989Z,22.00
2022-08-09T08:48:51.244Z,22.00
2022-08-09T08:51:22.543Z,22.30
2022-08-09T08:54:02.632Z,22.30
2022-08-09T08:56:41.127Z,22.30
2022-08-09T08:59:19.720Z,22.30
2022-08-09T09:01:53.487Z,22.50
2022-08-09T09:04:31.917Z,22.50
2022-08-09T09:07:09.985Z,22.80
2022-08-09T09:09:41.144Z,22.90
2022-08-09T09:12:34.222Z,22.90
2022-08-09T09:15:05.608Z,23.20
2022-08-09T09:17:49.538Z,22.90
2022-08-09T09:20:21.280Z,23.10
2022-08-09T09:22:52.885Z,23.30
2022-08-09T09:26:00.964Z,23.30
2022-08-09T09:29:03.073Z,23.30
2022-08-09T09:32:06.240Z,23.70
2022-08-09T09:34:14.451Z,23.60
2022-08-09T09:36:52.747Z,23.80
2022-08-09T09:39:54.591Z,23.70
2022-08-09T09:42:25.590Z,23.70
2022-08-09T09:45:04.629Z,23.70
2022-08-09T09:47:38.013Z,23.90
2022-08-09T09:50:23.359Z,24.00
2022-08-09T09:52:53.538Z,24.10
2022-08-09T09:55:32.110Z,24.20
2022-08-09T09:58:16.863Z,24.10
2022-08-09T10:00:59.197Z,24.10
2022-08-09T10:03:38.108Z,24.10
2022-08-09T10:06:07.107Z,24.40
2022-08-09T10:08:42.398Z,24.40
2022-08-09T10:12:00.242Z,24.30
2022-08-09T10:14:30.626Z,24.40
2022-08-09T10:17:39.207Z,24.50
2022-08-09T10:20:01.001Z,24.40
2022-08-09T10:22:36.397Z,24.70
2022-08-09T10:25:12.478Z,24.90
2022-08-09T10:27:57.778Z,24.90
2022-08-09T10:34:08.256Z,24.60
2022-08-09T10:36:05.815Z,25.00
2022-08-09T10:38:56.541Z,24.50
2022-08-09T10:41:27.840Z,25.10
2022-08-09T10:43:59.822Z,25.00
2022-08-09T10:48:08.723Z,25.60
2022-08-09T10:50:06.144Z,25.10
2022-08-09T10:53:00.198Z,25.30
2022-08-09T10:55:55.244Z,25.40
2022-08-09T10:58:34.551Z,25.40
2022-08-09T11:03:05.619Z,25.90
2022-08-09T11:04:30.789Z,25.70
2022-08-09T11:06:59.909Z,25.50
2022-08-09T11:09:48.006Z,25.60
2022-08-09T11:12:18.654Z,25.80
2022-08-09T11:14:51.339Z,25.90
2022-08-09T11:17:19.394Z,25.90
2022-08-09T11:20:19.917Z,25.90
2022-08-09T11:22:55.450Z,26.20
2022-08-09T11:25:36.335Z,25.90
2022-08-09T11:28:38.302Z,26.20
2022-08-09T11:31:49.105Z,26.00
2022-08-09T11:34:40.686Z,26.70
2022-08-09T11:37:18.212Z,26.60
2022-08-09T11:40:08.168Z,26.70
2022-08-09T11:42:57.640Z,26.80
2022-08-09T11:45:42.252Z,26.40
2022-08-09T11:48:24.949Z,26.60
2022-08-09T11:52:06.739Z,26.80
2022-08-09T11:54:01.640Z,27.00
2022-08-09T11:56:42.314Z,26.90
2022-08-09T11:59:30.200Z,26.70
2022-08-09T12:02:34.529Z,27.00
2022-08-09T12:04:57.961Z,26.90
2022-08-09T12:07:41.446Z,26.90
2022-08-09T12:10:31.774Z,27.40
2022-08-09T12:12:57.942Z,27.50
2022-08-09T12:15:48.801Z,27.50
2022-08-09T12:18:29.839Z,27.70
2022-08-09T12:20:59.055Z,27.40
2022-08-09T12:23:56.539Z,27.30
2022-08-09T12:26:19.788Z,27.70
2022-08-09T12:29:14.626Z,27.50
2022-08-09T12:32:01.802Z,27.50
2022-08-09T12:34:39.939Z,27.70
2022-08-09T12:37:21.381Z,28.00
2022-08-09T12:40:23.005Z,27.80
2022-08-09T12:42:52.207Z,27.70
2022-08-09T12:45:32.536Z,27.10
2022-08-09T12:48:03.511Z,27.50
2022-08-09T12:50:31.321Z,27.70
2022-08-09T12:53:18.296Z,27.50
2022-08-09T12:56:14.374Z,27.60
2022-08-09T12:58:33.940Z,27.90
2022-08-09T13:01:04.439Z,27.80
2022-08-09T13:03:53.432Z,27.80
2022-08-09T13:06:48.426Z,27.90
2022-08-09T13:09:18.086Z,27.90
2022-08-09T13:11:47.155Z,28.00
2022-08-09T13:14:41.457Z,28.20
2022-08-09T13:17:16.229Z,28.00
2022-08-09T13:20:10.010Z,27.70
2022-08-09T13:23:05.847Z,28.10
2022-08-09T13:25:42.935Z,28.20
2022-08-09T13:28:33.735Z,28.00
2022-08-09T13:32:15.745Z,28.10
2022-08-09T13:33:58.645Z,28.40
2022-08-09T13:36:42.544Z,28.70
2022-08-09T13:41:19.092Z,28.60
2022-08-09T13:42:10.953Z,28.80
2022-08-09T13:44:43.890Z,29.00
2022-08-09T13:47:29.586Z,28.40
2022-08-09T13:50:12.646Z,28.70
2022-08-09T13:52:47.642Z,28.70
2022-08-09T13:55:15.659Z,28.70
2022-08-09T13:57:56.300Z,28.70
2022-08-09T14:00:28.574Z,28.80
2022-08-09T14:03:04.499Z,28.60
2022-08-09T14:05:59.260Z,28.70
2022-08-09T14:08:30.748Z,28.80
2022-08-09T14:10:59.578Z,28.70
2022-08-09T14:14:23.709Z,28.60
2022-08-09T14:16:18.536Z,28.90
2022-08-09T14:18:49.656Z,28.50
2022-08-09T14:21:22.522Z,28.20
2022-08-09T14:23:57.026Z,28.20
2022-08-09T14:26:34.038Z,28.30
2022-08-09T14:29:07.838Z,28.50
2022-08-09T14:31:54.211Z,28.30
2022-08-09T14:34:31.473Z,28.70
2022-08-09T14:37:01.398Z,28.70
2022-08-09T14:39:40.550Z,28.60
2022-08-09T14:42:40.578Z,28.60
2022-08-09T14:46:51.224Z,28.70
2022-08-09T14:48:00.064Z,29.10
2022-08-09T14:50:32.460Z,28.70
2022-08-09T14:53:11.354Z,28.60
2022-08-09T14:55:47.921Z,28.70
2022-08-09T14:58:17.438Z,28.50
2022-08-09T15:00:47.035Z,28.60
2022-08-09T15:03:16.648Z,28.40
2022-08-09T15:05:51.278Z,28.50
2022-08-09T15:08:23.998Z,28.80
2022-08-09T15:11:01.181Z,28.70
2022-08-09T15:13:48.016Z,28.70
2022-08-09T15:16:19.755Z,28.70
2022-08-09T15:18:49.056Z,28.80
2022-08-09T15:21:56.829Z,28.90
2022-08-09T15:24:12.478Z,28.90
2022-08-09T15:26:46.217Z,29.10
2022-08-09T15:30:48.302Z,29.00
2022-08-09T15:32:03.789Z,29.00
2022-08-09T15:34:34.957Z,28.70
2022-08-09T15:37:23.995Z,28.90
2022-08-09T15:39:55.082Z,28.80
2022-08-09T15:42:22.172Z,28.90
2022-08-09T15:44:50.271Z,28.80
2022-08-09T15:47:23.528Z,28.70
2022-08-09T15:50:03.842Z,28.80
2022-08-09T15:52:34.268Z,28.80
2022-08-09T15:55:02.768Z,28.80
2022-08-09T15:57:34.375Z,28.50
2022-08-09T16:00:13.811Z,28.20
2022-08-09T16:02:48.096Z,28.20
2022-08-09T16:05:22.040Z,28.40
2022-08-09T16:07:49.299Z,28.70
2022-08-09T16:10:55.293Z,28.80
2022-08-09T16:13:04.513Z,28.30
2022-08-09T16:16:10.203Z,28.50
2022-08-09T16:18:34.360Z,28.40
2022-08-09T16:21:01.346Z,28.30
2022-08-09T16:23:28.400Z,28.30
2022-08-09T16:26:01.028Z,28.20
2022-08-09T16:28:29.903Z,28.40
2022-08-09T16:30:59.889Z,28.40
2022-08-09T16:33:31.015Z,28.40
2022-08-09T16:36:09.129Z,27.90
2022-08-09T16:38:41.539Z,28.00
2022-08-09T16:41:08.564Z,28.00
2022-08-09T16:43:44.117Z,27.90
2022-08-09T16:46:12.438Z,27.80
2022-08-09T16:48:52.104Z,28.20
2022-08-09T16:51:26.472Z,28.00
2022-08-09T16:54:27.693Z,28.10
2022-08-09T16:56:42.641Z,27.90
2022-08-09T16:59:16.747Z,27.70
2022-08-09T17:01:51.053Z,27.90
2022-08-09T17:04:21.542Z,27.70
2022-08-09T17:08:46.287Z,27.70
2022-08-09T17:09:45.686Z,27.70
2022-08-09T17:12:14.126Z,27.50
2022-08-09T17:14:47.575Z,27.50
2022-08-09T17:17:26.322Z,27.50
2022-08-09T17:20:29.863Z,27.30
2022-08-09T17:22:51.689Z,27.10
2022-08-09T17:25:20.445Z,27.10
2022-08-09T17:27:54.000Z,27.10
2022-08-09T17:30:28.271Z,27.10
2022-08-09T17:32:57.680Z,26.90
2022-08-09T17:35:33.953Z,26.70
2022-08-09T17:38:02.098Z,26.60
2022-08-09T17:40:41.864Z,26.60
2022-08-09T17:43:34.658Z,26.50
2022-08-09T17:46:06.138Z,26.50
2022-08-09T17:48:39.457Z,26.10
2022-08-09T17:51:18.211Z,26.20
2022-08-09T17:53:54.847Z,26.20
2022-08-09T17:56:35.329Z,26.20
2022-08-09T17:59:09.104Z,26.10
2022-08-09T18:02:03.572Z,25.90
2022-08-09T18:04:26.329Z,26.00
2022-08-09T18:06:55.682Z,25.90
2022-08-09T18:09:40.689Z,25.70
2022-08-09T18:12:17.291Z,25.70
2022-08-09T18:15:01.201Z,25.70
2022-08-09T18:18:02.959Z,25.70
2022-08-09T18:20:56.680Z,25.60
2022-08-09T18:23:07.442Z,25.30
2022-08-09T18:25:50.641Z,25.30
2022-08-09T18:30:39.732Z,25.20
2022-08-09T18:31:09.098Z,25.00
2022-08-09T18:33:36.276Z,25.00
2022-08-09T18:36:06.708Z,25.10
2022-08-09T18:38:33.974Z,25.00
2022-08-09T18:41:00.952Z,24.90
2022-08-09T18:43:28.600Z,24.90
2022-08-09T18:46:47.336Z,24.70
2022-08-09T18:48:51.255Z,24.70
2022-08-09T18:51:18.229Z,24.50
2022-08-09T18:54:08.609Z,24.40
2022-08-09T18:56:43.363Z,24.50
2022-08-09T18:59:10.520Z,24.50
2022-08-09T19:01:46.177Z,24.50
2022-08-09T19:04:13.604Z,24.40
2022-08-09T19:06:43.513Z,24.40
2022-08-09T19:09:20.606Z,24.30
2022-08-09T19:12:07.621Z,24.10
2022-08-09T19:14:37.075Z,24.10
2022-08-09T19:17:04.101Z,24.00
2022-08-09T19:19:41.722Z,24.10
2022-08-09T19:22:09.079Z,24.00
2022-08-09T19:25:09.651Z,23.90
2022-08-09T19:27:25.916Z,23.90
2022-08-09T19:30:22.475Z,23.70
2022-08-09T19:32:44.422Z,23.80
2022-08-09T19:35:11.576Z,23.90
2022-08-09T19:37:54.356Z,23.90
2022-08-09T19:40:22.243Z,23.80
2022-08-09T19:42:49.756Z,23.70
2022-08-09T19:45:17.330Z,23.70
2022-08-09T19:47:44.983Z,23.60
2022-08-09T19:50:50.717Z,23.50
2022-08-09T19:53:02.491Z,23.60
2022-08-09T19:56:03.226Z,23.50
2022-08-09T19:58:29.526Z,23.50
2022-08-09T20:00:58.020Z,23.40
2022-08-09T20:04:18.201Z,23.30
2022-08-09T20:06:23.938Z,23.20
2022-08-09T20:08:57.602Z,23.10
2022-08-09T20:11:33.720Z,23.00
2022-08-09T20:14:10.666Z,22.80
2022-08-09T20:16:53.510Z,22.60
2022-08-09T20:19:48.518Z,22.80
2022-08-09T20:22:09.846Z,22.80
2022-08-09T20:24:37.590Z,22.60
2022-08-09T20:27:08.894Z,22.60
2022-08-09T20:29:39.241Z,22.50
2022-08-09T20:32:29.689Z,22.30
2022-08-09T20:34:59.622Z,22.30
2022-08-09T20:38:08.753Z,22.20
2022-08-09T20:40:26.475Z,22.30
2022-08-09T20:43:00.039Z,22.20
2022-08-09T20:45:56.886Z,22.20
2022-08-09T20:48:29.008Z,22.00
2022-08-09T20:50:59.835Z,21.90
2022-08-09T20:53:37.095Z,21.70
2022-08-09T20:56:20.202Z,21.90
2022-08-09T20:58:57.928Z,21.60
2022-08-09T21:01:35.095Z,21.70
2022-08-09T21:05:54.350Z,21.80
2022-08-09T21:07:12.375Z,21.70
2022-08-09T21:09:56.337Z,21.70
2022-08-09T21:15:27.411Z,21.70
2022-08-09T21:18:24.745Z,21.70
2022-08-09T21:20:51.814Z,21.70
2022-08-09T21:23:22.319Z,21.60
2022-08-09T21:26:09.260Z,21.60
2022-08-09T21:28:36.538Z,21.60
2022-08-09T21:31:16.681Z,21.40
2022-08-09T21:33:50.321Z,21.30
2022-08-09T21:36:25.874Z,21.20
2022-08-09T21:38:57.511Z,21.20
2022-08-09T21:42:03.810Z,21.10
2022-08-09T21:44:34.029Z,21.10
2022-08-09T21:47:04.023Z,21.20
2022-08-09T21:49:40.198Z,21.20
2022-08-09T21:52:14.434Z,21.20
2022-08-09T21:54:50.825Z,21.00
2022-08-09T21:57:37.693Z,20.80
2022-08-09T22:00:17.904Z,20.90
2022-08-09T22:02:58.063Z,20.90
2022-08-09T22:05:36.184Z,20.80
2022-08-09T22:08:13.732Z,20.80
2022-08-09T22:11:01.123Z,20.90
2022-08-09T22:13:34.291Z,20.80
2022-08-09T22:16:07.154Z,20.80
2022-08-09T22:18:37.108Z,20.90
2022-08-09T22:21:09.752Z,20.80
2022-08-09T22:23:59.432Z,20.80
2022-08-09T22:26:35.464Z,20.60
2022-08-09T22:29:08.760Z,20.70
2022-08-09T22:31:37.788Z,20.70
2022-08-09T22:34:09.576Z,20.70
2022-08-09T22:36:46.005Z,20.60
2022-08-09T22:39:46.995Z,20.60
2022-08-09T22:42:04.128Z,20.50
2022-08-09T22:44:45.037Z,20.60
2022-08-09T22:48:18.329Z,20.50
2022-08-09T22:49:59.708Z,20.60
2022-08-09T22:52:27.004Z,20.50
2022-08-09T22:54:54.475Z,20.50
2022-08-09T22:57:22.839Z,20.50
2022-08-09T22:59:59.413Z,20.40
2022-08-09T23:02:27.450Z,20.50
2022-08-09T23:04:56.919Z,20.30
2022-08-09T23:08:27.405Z,20.20
2022-08-09T23:10:31.550Z,20.30
2022-08-09T23:12:59.231Z,20.30
2022-08-09T23:15:27.391Z,20.10
2022-08-09T23:17:54.454Z,20.20
2022-08-09T23:20:21.874Z,20.20
2022-08-09T23:22:49.452Z,20.10
2022-08-09T23:25:16.381Z,20.20
2022-08-09T23:27:56.640Z,20.10
2022-08-09T23:30:30.644Z,20.10
2022-08-09T23:32:57.558Z,20.10
2022-08-09T23:35:24.662Z,20.00
2022-08-09T23:37:51.684Z,19.90
2022-08-09T23:40:18.655Z,19.80
2022-08-09T23:42:45.554Z,19.80
2022-08-09T23:45:36.877Z,19.90
2022-08-09T23:47:59.773Z,19.70
2022-08-09T23:50:27.127Z,19.70
2022-08-09T23:52:54.084Z,19.70
2022-08-09T23:55:21.391Z,19.70
2022-08-09T23:58:09.348Z,19.60
